This is the latest recevied weather packets stored in our database for station/object F4FEB-14. If no packets are shown the sender has not sent any weather packets the latest 10 day(s).
| Time | Temp. | Humidity | Pressure | Rain* | Wind** | Luminosity | Snow |
|---|---|---|---|---|---|---|---|
| 1777501209 | 13.89° C | 66% | 1018.9 hPa | 0 mm | - | - | - |
| 1777500908 | 13.89° C | 67% | 1018.8 hPa | 0 mm | - | - | - |
| 1777500607 | 13.89° C | 67% | 1018.9 hPa | 0 mm | - | - | - |
| 1777500306 | 13.89° C | 69% | 1018.9 hPa | 0 mm | - | - | - |
| 1777500005 | 13.89° C | 72% | 1018.7 hPa | 0 mm | - | - | - |
| 1777499704 | 14.44° C | 71% | 1018.7 hPa | 0 mm | - | - | - |
| 1777499404 | 14.44° C | 74% | 1018.8 hPa | 0 mm | - | - | - |
| 1777499102 | 14.44° C | 76% | 1018.8 hPa | 0 mm | - | - | - |
| 1777498801 | 13.89° C | 78% | 1018.8 hPa | 0 mm | - | - | - |
| 1777498498 | 13.89° C | 83% | 1018.7 hPa | 0 mm | - | - | - |
| 1777498197 | 14.44° C | 83% | 1018.7 hPa | 0 mm | - | - | - |
| 1777497594 | 14.44° C | 84% | 1018.6 hPa | 0 mm | - | - | - |
| 1777497294 | 13.89° C | 89% | 1018.6 hPa | 0 mm | - | - | - |
| 1777496992 | 12.78° C | 97% | 1018.7 hPa | 0 mm | - | - | - |
| 1777496691 | 12.22° C | 100% | 1018.7 hPa | 0 mm | - | - | - |
| 1777496390 | 12.22° C | 100% | 1018.6 hPa | 0 mm | - | - | - |
| 1777496088 | 12.22° C | 100% | 1018.6 hPa | 0 mm | - | - | - |
| 1777495786 | 12.22° C | 100% | 1018.6 hPa | 0 mm | - | - | - |
| 1777495485 | 12.22° C | 100% | 1018.6 hPa | 0 mm | - | - | - |
| 1777495183 | 12.78° C | 100% | 1018.7 hPa | 0 mm | - | - | - |
| 1777494882 | 12.78° C | 100% | 1018.7 hPa | 0 mm | - | - | - |
| 1777494580 | 13.33° C | 100% | 1018.5 hPa | 0 mm | - | - | - |
| 1777494279 | 13.33° C | 100% | 1018.6 hPa | 0 mm | - | - | - |
| 1777493978 | 13.33° C | 100% | 1018.6 hPa | 0 mm | - | - | - |
| 1777493677 | 12.78° C | 100% | 1018.5 hPa | 0 mm | - | - | - |
* Rain latest hour (hover to see other rain measurements)
** Current wind speed in m/s (hover to see current wind gust speed)